Fetterville, Pennsylvania
Current Conditions -  °F | °C
As of 3:55 AM on Friday 31 Oct 2014 (Local Time) from KMQS Reporting Station
Few Clouds Few Clouds  
Wind Chill: 41°   Ceiling: Unl
Heat Index: 41°   Visibility: 10mi
Dew Point: 34°   Wind: 3mph
Humidity: 76%   Direction: 20°NNE
Pressure: 30.01"   Gusts: NA
Location:  40.1227°N, 75.966°W
Report Text: KMQS 310755Z AUTO 02003KT 10SM FEW048 05/01 A3001 RMK AO2
Loading
Personal Weather Stations






























Interactive Weather Map
Tropical Storm Tracking
New forecast layout! Learn more

10-Day Weather Forecast

Advertisements
Track Severe Weather on mobile